sensor_id;sensor_type;location;lat;lon;timestamp;pressure;altitude;pressure_sealevel;temperature;humidity
6567;BME280;3317;43.994;22.878;2023-04-26T00:01:50;99990.69;;;12.66;66.61
6567;BME280;3317;43.994;22.878;2023-04-26T00:04:18;100007.09;;;12.73;67.29
6567;BME280;3317;43.994;22.878;2023-04-26T00:06:45;100009.84;;;12.73;67.04
6567;BME280;3317;43.994;22.878;2023-04-26T00:09:15;100004.66;;;12.63;67.28
6567;BME280;3317;43.994;22.878;2023-04-26T00:11:43;100004.13;;;12.67;67.54
6567;BME280;3317;43.994;22.878;2023-04-26T00:14:09;100009.38;;;12.69;67.08
6567;BME280;3317;43.994;22.878;2023-04-26T00:16:37;99992.03;;;12.70;66.78
6567;BME280;3317;43.994;22.878;2023-04-26T00:19:04;99992.59;;;12.65;66.98
6567;BME280;3317;43.994;22.878;2023-04-26T00:21:31;99996.78;;;12.68;66.79
6567;BME280;3317;43.994;22.878;2023-04-26T00:23:58;99986.69;;;12.62;66.57
6567;BME280;3317;43.994;22.878;2023-04-26T00:26:26;100003.25;;;12.67;66.87
6567;BME280;3317;43.994;22.878;2023-04-26T00:28:54;99995.47;;;12.64;67.20
6567;BME280;3317;43.994;22.878;2023-04-26T00:31:21;99984.44;;;12.65;67.03
6567;BME280;3317;43.994;22.878;2023-04-26T00:33:48;99977.66;;;12.61;66.67
6567;BME280;3317;43.994;22.878;2023-04-26T00:36:15;99969.63;;;12.53;66.37
6567;BME280;3317;43.994;22.878;2023-04-26T00:38:43;99977.22;;;12.58;67.00
6567;BME280;3317;43.994;22.878;2023-04-26T00:41:12;99978.41;;;12.55;67.02
6567;BME280;3317;43.994;22.878;2023-04-26T00:43:40;99958.44;;;12.48;66.94
6567;BME280;3317;43.994;22.878;2023-04-26T00:46:07;99963.06;;;12.47;67.42
6567;BME280;3317;43.994;22.878;2023-04-26T00:48:35;99964.72;;;12.48;67.11
6567;BME280;3317;43.994;22.878;2023-04-26T00:51:03;99964.72;;;12.48;67.32
6567;BME280;3317;43.994;22.878;2023-04-26T00:53:31;99959.03;;;12.43;67.96
6567;BME280;3317;43.994;22.878;2023-04-26T00:55:59;99946.44;;;12.27;68.14
6567;BME280;3317;43.994;22.878;2023-04-26T00:58:28;99960.78;;;12.36;67.83
6567;BME280;3317;43.994;22.878;2023-04-26T01:00:56;99963.56;;;12.28;68.38
6567;BME280;3317;43.994;22.878;2023-04-26T01:03:23;99957.47;;;12.25;68.24
6567;BME280;3317;43.994;22.878;2023-04-26T01:05:51;99964.59;;;12.27;68.26
6567;BME280;3317;43.994;22.878;2023-04-26T01:08:19;99971.72;;;12.28;67.96
6567;BME280;3317;43.994;22.878;2023-04-26T01:10:46;99976.13;;;12.29;68.06
6567;BME280;3317;43.994;22.878;2023-04-26T01:13:14;99976.81;;;12.31;67.60
6567;BME280;3317;43.994;22.878;2023-04-26T01:15:42;99981.19;;;12.32;67.58
6567;BME280;3317;43.994;22.878;2023-04-26T01:18:12;99983.06;;;12.31;67.71
6567;BME280;3317;43.994;22.878;2023-04-26T01:20:39;99973.88;;;12.32;68.14
6567;BME280;3317;43.994;22.878;2023-04-26T01:23:09;99967.41;;;12.33;68.05
6567;BME280;3317;43.994;22.878;2023-04-26T01:25:54;99980.16;;;12.33;67.83
6567;BME280;3317;43.994;22.878;2023-04-26T01:28:21;99973.50;;;12.35;67.52
6567;BME280;3317;43.994;22.878;2023-04-26T01:30:48;99972.84;;;12.33;67.35
6567;BME280;3317;43.994;22.878;2023-04-26T01:33:15;99965.34;;;12.35;67.28
6567;BME280;3317;43.994;22.878;2023-04-26T01:35:42;99973.72;;;12.34;66.98
6567;BME280;3317;43.994;22.878;2023-04-26T01:38:10;99981.47;;;12.37;66.28
6567;BME280;3317;43.994;22.878;2023-04-26T01:40:38;99993.00;;;12.39;65.78
6567;BME280;3317;43.994;22.878;2023-04-26T01:43:08;99995.72;;;12.39;65.97
6567;BME280;3317;43.994;22.878;2023-04-26T01:45:35;100009.31;;;12.39;65.85
6567;BME280;3317;43.994;22.878;2023-04-26T01:48:02;100004.53;;;12.41;65.80
6567;BME280;3317;43.994;22.878;2023-04-26T01:50:29;100015.94;;;12.36;66.43
6567;BME280;3317;43.994;22.878;2023-04-26T01:52:56;100010.59;;;12.28;67.69
6567;BME280;3317;43.994;22.878;2023-04-26T01:55:25;100005.34;;;12.27;67.45
6567;BME280;3317;43.994;22.878;2023-04-26T01:57:54;100000.66;;;12.20;67.91
6567;BME280;3317;43.994;22.878;2023-04-26T02:00:21;100003.91;;;12.16;68.00
6567;BME280;3317;43.994;22.878;2023-04-26T02:02:47;100000.34;;;12.15;67.37
6567;BME280;3317;43.994;22.878;2023-04-26T02:05:15;99997.81;;;12.14;67.49
6567;BME280;3317;43.994;22.878;2023-04-26T02:07:41;99996.13;;;12.13;67.59
6567;BME280;3317;43.994;22.878;2023-04-26T02:10:09;99994.50;;;12.03;68.04
6567;BME280;3317;43.994;22.878;2023-04-26T02:12:37;99990.25;;;12.01;68.15
6567;BME280;3317;43.994;22.878;2023-04-26T02:15:05;99979.75;;;11.97;68.30
6567;BME280;3317;43.994;22.878;2023-04-26T02:17:32;99983.88;;;11.93;68.36
6567;BME280;3317;43.994;22.878;2023-04-26T02:19:59;99985.91;;;11.91;68.87
6567;BME280;3317;43.994;22.878;2023-04-26T02:22:26;99989.63;;;11.90;68.71
6567;BME280;3317;43.994;22.878;2023-04-26T02:24:54;99988.81;;;11.90;68.52
6567;BME280;3317;43.994;22.878;2023-04-26T02:27:20;99995.91;;;11.91;68.32
6567;BME280;3317;43.994;22.878;2023-04-26T02:29:49;99984.56;;;11.87;68.46
6567;BME280;3317;43.994;22.878;2023-04-26T02:32:16;99986.75;;;11.92;68.26
6567;BME280;3317;43.994;22.878;2023-04-26T02:34:43;99922.06;;;11.49;68.34
6567;BME280;3317;43.994;22.878;2023-04-26T02:37:10;99974.00;;;11.69;69.41
6567;BME280;3317;43.994;22.878;2023-04-26T02:39:37;99971.78;;;11.73;69.38
6567;BME280;3317;43.994;22.878;2023-04-26T02:42:07;99977.94;;;11.66;69.74
6567;BME280;3317;43.994;22.878;2023-04-26T02:44:34;99966.09;;;11.59;69.50
6567;BME280;3317;43.994;22.878;2023-04-26T02:47:03;99969.00;;;11.58;69.23
6567;BME280;3317;43.994;22.878;2023-04-26T02:49:30;99965.44;;;11.57;69.69
6567;BME280;3317;43.994;22.878;2023-04-26T02:51:57;99964.47;;;11.50;70.18
6567;BME280;3317;43.994;22.878;2023-04-26T02:54:24;99964.81;;;11.47;70.03
6567;BME280;3317;43.994;22.878;2023-04-26T02:56:51;99965.97;;;11.52;69.60
6567;BME280;3317;43.994;22.878;2023-04-26T02:59:19;99961.16;;;11.39;70.26
6567;BME280;3317;43.994;22.878;2023-04-26T03:01:46;99962.84;;;11.40;70.13
6567;BME280;3317;43.994;22.878;2023-04-26T03:04:15;99960.47;;;11.37;70.31
6567;BME280;3317;43.994;22.878;2023-04-26T03:06:42;99962.47;;;11.44;69.96
6567;BME280;3317;43.994;22.878;2023-04-26T03:09:09;99962.47;;;11.44;70.05
6567;BME280;3317;43.994;22.878;2023-04-26T03:11:36;99964.88;;;11.38;70.08
6567;BME280;3317;43.994;22.878;2023-04-26T03:14:03;99965.19;;;11.44;70.14
6567;BME280;3317;43.994;22.878;2023-04-26T03:16:30;99962.28;;;11.45;70.03
6567;BME280;3317;43.994;22.878;2023-04-26T03:18:57;99966.16;;;11.51;69.31
6567;BME280;3317;43.994;22.878;2023-04-26T03:21:25;99966.16;;;11.51;69.00
6567;BME280;3317;43.994;22.878;2023-04-26T03:23:52;99960.72;;;11.51;68.79
6567;BME280;3317;43.994;22.878;2023-04-26T03:26:19;99960.38;;;11.54;69.29
6567;BME280;3317;43.994;22.878;2023-04-26T03:28:47;99964.78;;;11.55;69.35
6567;BME280;3317;43.994;22.878;2023-04-26T03:31:13;99962.41;;;11.52;68.75
6567;BME280;3317;43.994;22.878;2023-04-26T03:33:40;99961.28;;;11.46;69.29
6567;BME280;3317;43.994;22.878;2023-04-26T03:36:07;99962.13;;;11.47;69.23
6567;BME280;3317;43.994;22.878;2023-04-26T03:38:36;99957.88;;;11.44;69.91
6567;BME280;3317;43.994;22.878;2023-04-26T03:41:03;99959.09;;;11.41;69.70
6567;BME280;3317;43.994;22.878;2023-04-26T03:43:30;99961.28;;;11.46;69.16
6567;BME280;3317;43.994;22.878;2023-04-26T03:45:57;99958.75;;;11.45;68.79
6567;BME280;3317;43.994;22.878;2023-04-26T03:48:24;99949.94;;;11.43;68.93
6567;BME280;3317;43.994;22.878;2023-04-26T03:50:51;99955.00;;;11.46;68.87
6567;BME280;3317;43.994;22.878;2023-04-26T03:53:17;99955.84;;;11.46;68.55
6567;BME280;3317;43.994;22.878;2023-04-26T03:55:46;99950.91;;;11.50;68.65
6567;BME280;3317;43.994;22.878;2023-04-26T03:58:13;99954.28;;;11.52;68.54
6567;BME280;3317;43.994;22.878;2023-04-26T04:00:40;99956.31;;;11.50;68.56
6567;BME280;3317;43.994;22.878;2023-04-26T04:03:08;99952.28;;;11.46;68.29
6567;BME280;3317;43.994;22.878;2023-04-26T04:05:35;99960.44;;;11.46;68.60
6567;BME280;3317;43.994;22.878;2023-04-26T04:08:02;99967.53;;;11.47;68.38
6567;BME280;3317;43.994;22.878;2023-04-26T04:10:29;99963.25;;;11.52;67.76
6567;BME280;3317;43.994;22.878;2023-04-26T04:12:57;99969.84;;;11.58;67.79
6567;BME280;3317;43.994;22.878;2023-04-26T04:15:24;99963.69;;;11.64;67.46
6567;BME280;3317;43.994;22.878;2023-04-26T04:17:51;99966.59;;;11.63;67.41
6567;BME280;3317;43.994;22.878;2023-04-26T04:20:18;99976.38;;;11.72;66.84
6567;BME280;3317;43.994;22.878;2023-04-26T04:22:45;99967.00;;;11.75;66.43
6567;BME280;3317;43.994;22.878;2023-04-26T04:25:14;99982.59;;;11.81;66.30
6567;BME280;3317;43.994;22.878;2023-04-26T04:27:41;99963.81;;;11.71;66.18
6567;BME280;3317;43.994;22.878;2023-04-26T04:30:10;99980.34;;;11.84;66.27
6567;BME280;3317;43.994;22.878;2023-04-26T04:32:37;99984.88;;;11.92;65.72
6567;BME280;3317;43.994;22.878;2023-04-26T04:35:07;99984.16;;;11.98;65.72
6567;BME280;3317;43.994;22.878;2023-04-26T04:37:34;99995.16;;;12.05;65.85
6567;BME280;3317;43.994;22.878;2023-04-26T04:40:01;99986.75;;;12.15;65.74
6567;BME280;3317;43.994;22.878;2023-04-26T04:42:29;99978.97;;;12.12;65.38
6567;BME280;3317;43.994;22.878;2023-04-26T04:44:56;99994.97;;;12.30;65.20
6567;BME280;3317;43.994;22.878;2023-04-26T04:47:25;99998.75;;;12.44;64.84
6567;BME280;3317;43.994;22.878;2023-04-26T04:49:52;99998.09;;;12.57;64.62
6567;BME280;3317;43.994;22.878;2023-04-26T04:52:19;99980.38;;;12.61;64.02
6567;BME280;3317;43.994;22.878;2023-04-26T04:54:46;99996.16;;;12.81;63.20
6567;BME280;3317;43.994;22.878;2023-04-26T04:57:13;100009.47;;;12.91;63.04
6567;BME280;3317;43.994;22.878;2023-04-26T04:59:41;99999.72;;;12.96;62.41
6567;BME280;3317;43.994;22.878;2023-04-26T05:02:08;99994.38;;;13.03;61.96
6567;BME280;3317;43.994;22.878;2023-04-26T05:04:36;99999.59;;;13.20;61.34
6567;BME280;3317;43.994;22.878;2023-04-26T05:07:03;100006.25;;;13.32;60.99
6567;BME280;3317;43.994;22.878;2023-04-26T05:09:31;100004.06;;;13.43;60.90
6567;BME280;3317;43.994;22.878;2023-04-26T05:11:58;100001.94;;;13.53;60.50
6567;BME280;3317;43.994;22.878;2023-04-26T05:14:25;100000.00;;;13.69;59.89
6567;BME280;3317;43.994;22.878;2023-04-26T05:16:52;100003.50;;;13.84;59.06
6567;BME280;3317;43.994;22.878;2023-04-26T05:19:19;100005.81;;;14.02;62.36
6567;BME280;3317;43.994;22.878;2023-04-26T05:21:49;99992.44;;;14.07;60.87
6567;BME280;3317;43.994;22.878;2023-04-26T05:24:16;100004.16;;;14.30;58.02
6567;BME280;3317;43.994;22.878;2023-04-26T05:26:43;100007.88;;;14.44;57.28
6567;BME280;3317;43.994;22.878;2023-04-26T05:29:10;100013.19;;;14.59;56.98
6567;BME280;3317;43.994;22.878;2023-04-26T05:31:37;100014.34;;;14.71;56.61
6567;BME280;3317;43.994;22.878;2023-04-26T05:34:04;100017.41;;;14.83;56.02
6567;BME280;3317;43.994;22.878;2023-04-26T05:36:31;100012.84;;;14.97;55.34
6567;BME280;3317;43.994;22.878;2023-04-26T05:38:59;100020.28;;;15.10;54.90
6567;BME280;3317;43.994;22.878;2023-04-26T05:41:26;100015.72;;;15.24;54.59
6567;BME280;3317;43.994;22.878;2023-04-26T05:43:53;100019.16;;;15.40;53.41
6567;BME280;3317;43.994;22.878;2023-04-26T05:46:21;100024.66;;;15.53;52.50
6567;BME280;3317;43.994;22.878;2023-04-26T05:48:48;100019.31;;;15.73;53.17
6567;BME280;3317;43.994;22.878;2023-04-26T05:51:15;100000.78;;;15.62;51.27
6567;BME280;3317;43.994;22.878;2023-04-26T05:53:42;100020.63;;;15.91;50.42
6567;BME280;3317;43.994;22.878;2023-04-26T05:56:10;99980.22;;;15.80;49.20
6567;BME280;3317;43.994;22.878;2023-04-26T05:58:37;100036.66;;;16.21;47.97
6567;BME280;3317;43.994;22.878;2023-04-26T06:01:04;100021.09;;;16.28;47.43
6567;BME280;3317;43.994;22.878;2023-04-26T06:03:31;100033.28;;;16.39;46.68
6567;BME280;3317;43.994;22.878;2023-04-26T06:05:58;100037.50;;;16.55;47.26
6567;BME280;3317;43.994;22.878;2023-04-26T06:08:25;100034.53;;;16.57;45.39
6567;BME280;3317;43.994;22.878;2023-04-26T06:10:53;100043.16;;;16.74;45.94
6567;BME280;3317;43.994;22.878;2023-04-26T06:13:21;100040.41;;;16.87;46.59
6567;BME280;3317;43.994;22.878;2023-04-26T06:15:49;100048.88;;;16.99;46.09
6567;BME280;3317;43.994;22.878;2023-04-26T06:18:15;100046.75;;;17.08;45.60
6567;BME280;3317;43.994;22.878;2023-04-26T06:20:42;100057.66;;;17.22;45.04
6567;BME280;3317;43.994;22.878;2023-04-26T06:23:09;100054.69;;;17.30;44.77
6567;BME280;3317;43.994;22.878;2023-04-26T06:25:36;100051.50;;;17.40;44.73
6567;BME280;3317;43.994;22.878;2023-04-26T06:28:06;100063.66;;;17.51;43.88
6567;BME280;3317;43.994;22.878;2023-04-26T06:30:34;100049.09;;;17.64;44.27
6567;BME280;3317;43.994;22.878;2023-04-26T06:33:01;100051.06;;;17.88;46.75
6567;BME280;3317;43.994;22.878;2023-04-26T06:35:28;100057.97;;;17.98;43.65
6567;BME280;3317;43.994;22.878;2023-04-26T06:37:55;100050.38;;;18.00;42.31
6567;BME280;3317;43.994;22.878;2023-04-26T06:40:22;100039.22;;;17.95;41.80
6567;BME280;3317;43.994;22.878;2023-04-26T06:42:49;100062.53;;;18.18;43.16
6567;BME280;3317;43.994;22.878;2023-04-26T06:45:16;100055.53;;;18.22;41.79
6567;BME280;3317;43.994;22.878;2023-04-26T06:47:50;100053.81;;;18.27;41.28
6567;BME280;3317;43.994;22.878;2023-04-26T06:50:17;100058.00;;;18.30;40.58
6567;BME280;3317;43.994;22.878;2023-04-26T06:52:43;100055.69;;;18.34;40.15
6567;BME280;3317;43.994;22.878;2023-04-26T06:55:10;100062.78;;;18.41;40.99
6567;BME280;3317;43.994;22.878;2023-04-26T06:57:38;100059.59;;;18.44;40.39
6567;BME280;3317;43.994;22.878;2023-04-26T07:00:06;100071.38;;;18.52;40.16
6567;BME280;3317;43.994;22.878;2023-04-26T07:02:33;100072.34;;;18.57;39.84
6567;BME280;3317;43.994;22.878;2023-04-26T07:05:02;100076.56;;;18.60;39.28
6567;BME280;3317;43.994;22.878;2023-04-26T07:07:29;100071.63;;;18.69;40.06
6567;BME280;3317;43.994;22.878;2023-04-26T07:09:56;100077.69;;;18.78;39.28
6567;BME280;3317;43.994;22.878;2023-04-26T07:12:23;100075.25;;;18.88;39.71
6567;BME280;3317;43.994;22.878;2023-04-26T07:14:50;100080.94;;;18.93;39.68
6567;BME280;3317;43.994;22.878;2023-04-26T07:17:17;100078.19;;;18.93;38.56
6567;BME280;3317;43.994;22.878;2023-04-26T07:19:45;100073.59;;;18.87;38.08
6567;BME280;3317;43.994;22.878;2023-04-26T07:22:14;100085.34;;;18.94;38.84
6567;BME280;3317;43.994;22.878;2023-04-26T07:24:41;100086.63;;;18.92;38.48
6567;BME280;3317;43.994;22.878;2023-04-26T07:27:07;100082.00;;;18.92;38.44
6567;BME280;3317;43.994;22.878;2023-04-26T07:29:34;100066.72;;;18.78;38.19
6567;BME280;3317;43.994;22.878;2023-04-26T07:32:01;100090.84;;;18.94;38.67
6567;BME280;3317;43.994;22.878;2023-04-26T07:34:28;100046.09;;;18.68;38.41
6567;BME280;3317;43.994;22.878;2023-04-26T07:36:55;100074.03;;;18.84;37.93
6567;BME280;3317;43.994;22.878;2023-04-26T07:39:23;100087.63;;;18.97;38.48
6567;BME280;3317;43.994;22.878;2023-04-26T07:41:52;100085.72;;;19.05;38.84
6567;BME280;3317;43.994;22.878;2023-04-26T07:44:19;100077.69;;;19.03;37.88
6567;BME280;3317;43.994;22.878;2023-04-26T07:46:46;100086.72;;;19.10;37.50
6567;BME280;3317;43.994;22.878;2023-04-26T07:49:13;100091.22;;;19.23;38.61
6567;BME280;3317;43.994;22.878;2023-04-26T07:51:42;100082.97;;;19.23;37.45
6567;BME280;3317;43.994;22.878;2023-04-26T07:54:10;100096.25;;;19.26;37.46
6567;BME280;3317;43.994;22.878;2023-04-26T07:56:38;100080.16;;;19.30;36.73
6567;BME280;3317;43.994;22.878;2023-04-26T07:59:05;100093.50;;;19.26;36.54
6567;BME280;3317;43.994;22.878;2023-04-26T08:01:32;100090.94;;;19.32;37.23
6567;BME280;3317;43.994;22.878;2023-04-26T08:03:59;100080.69;;;19.20;36.82
6567;BME280;3317;43.994;22.878;2023-04-26T08:06:26;100094.69;;;19.37;37.57
6567;BME280;3317;43.994;22.878;2023-04-26T08:08:53;100092.53;;;19.39;36.99
6567;BME280;3317;43.994;22.878;2023-04-26T08:11:20;100100.91;;;19.45;37.16
6567;BME280;3317;43.994;22.878;2023-04-26T08:13:48;100039.97;;;19.17;37.66
6567;BME280;3317;43.994;22.878;2023-04-26T08:16:15;100097.63;;;19.54;37.29
6567;BME280;3317;43.994;22.878;2023-04-26T08:18:42;100098.63;;;19.60;37.34
6567;BME280;3317;43.994;22.878;2023-04-26T08:21:09;100102.84;;;19.63;36.94
6567;BME280;3317;43.994;22.878;2023-04-26T08:23:36;100097.03;;;19.71;36.86
6567;BME280;3317;43.994;22.878;2023-04-26T08:26:03;100104.44;;;19.70;36.64
6567;BME280;3317;43.994;22.878;2023-04-26T08:28:30;100095.63;;;19.80;36.66
6567;BME280;3317;43.994;22.878;2023-04-26T08:30:59;100105.13;;;19.84;36.08
6567;BME280;3317;43.994;22.878;2023-04-26T08:33:26;100106.78;;;19.86;36.05
6567;BME280;3317;43.994;22.878;2023-04-26T08:35:53;100100.81;;;19.89;36.27
6567;BME280;3317;43.994;22.878;2023-04-26T08:38:20;100106.25;;;19.95;36.64
6567;BME280;3317;43.994;22.878;2023-04-26T08:40:47;100104.50;;;20.01;36.52
6567;BME280;3317;43.994;22.878;2023-04-26T08:43:14;100094.69;;;20.05;35.28
6567;BME280;3317;43.994;22.878;2023-04-26T08:45:43;100108.53;;;20.29;37.20
6567;BME280;3317;43.994;22.878;2023-04-26T08:48:12;100103.91;;;20.30;36.10
6567;BME280;3317;43.994;22.878;2023-04-26T08:50:42;100117.69;;;20.42;35.62
6567;BME280;3317;43.994;22.878;2023-04-26T08:53:13;100114.94;;;20.42;34.83
6567;BME280;3317;43.994;22.878;2023-04-26T08:55:46;100110.50;;;20.40;35.16
6567;BME280;3317;43.994;22.878;2023-04-26T08:58:13;100108.50;;;20.48;34.71
6567;BME280;3317;43.994;22.878;2023-04-26T09:00:42;100114.25;;;20.58;35.77
6567;BME280;3317;43.994;22.878;2023-04-26T09:03:14;100114.13;;;20.65;35.05
6567;BME280;3317;43.994;22.878;2023-04-26T09:05:41;100111.03;;;20.73;34.92
6567;BME280;3317;43.994;22.878;2023-04-26T09:08:13;100118.59;;;20.78;34.39
6567;BME280;3317;43.994;22.878;2023-04-26T09:10:42;100113.38;;;20.88;34.63
6567;BME280;3317;43.994;22.878;2023-04-26T09:13:09;100121.41;;;21.02;34.76
6567;BME280;3317;43.994;22.878;2023-04-26T09:15:37;100122.38;;;21.07;33.75
6567;BME280;3317;43.994;22.878;2023-04-26T09:18:19;100115.66;;;21.03;33.97
6567;BME280;3317;43.994;22.878;2023-04-26T09:21:01;100109.56;;;21.13;34.67
6567;BME280;3317;43.994;22.878;2023-04-26T09:23:28;100125.84;;;21.27;34.16
6567;BME280;3317;43.994;22.878;2023-04-26T09:25:56;100131.38;;;21.27;33.26
6567;BME280;3317;43.994;22.878;2023-04-26T09:28:23;100128.00;;;21.24;33.16
6567;BME280;3317;43.994;22.878;2023-04-26T09:30:50;100130.28;;;21.28;33.66
6567;BME280;3317;43.994;22.878;2023-04-26T09:33:19;100130.03;;;21.29;33.09
6567;BME280;3317;43.994;22.878;2023-04-26T09:35:45;100122.00;;;21.28;32.47
6567;BME280;3317;43.994;22.878;2023-04-26T09:38:13;100126.69;;;21.27;33.95
6567;BME280;3317;43.994;22.878;2023-04-26T09:40:42;100126.31;;;21.35;34.21
6567;BME280;3317;43.994;22.878;2023-04-26T09:43:11;100124.88;;;21.33;33.46
6567;BME280;3317;43.994;22.878;2023-04-26T09:45:46;100103.44;;;21.23;33.73
6567;BME280;3317;43.994;22.878;2023-04-26T09:48:16;100125.69;;;21.45;34.39
6567;BME280;3317;43.994;22.878;2023-04-26T09:50:46;100059.84;;;21.08;33.25
6567;BME280;3317;43.994;22.878;2023-04-26T09:53:31;100105.78;;;21.55;33.07
6567;BME280;3317;43.994;22.878;2023-04-26T09:56:06;100124.63;;;21.70;32.84
6567;BME280;3317;43.994;22.878;2023-04-26T09:58:34;100125.78;;;21.74;33.06
6567;BME280;3317;43.994;22.878;2023-04-26T10:01:02;100081.09;;;21.60;33.06
6567;BME280;3317;43.994;22.878;2023-04-26T10:03:29;100107.44;;;21.80;32.67
6567;BME280;3317;43.994;22.878;2023-04-26T10:05:59;100122.88;;;21.93;33.17
6567;BME280;3317;43.994;22.878;2023-04-26T10:08:26;100108.22;;;22.04;33.30
6567;BME280;3317;43.994;22.878;2023-04-26T10:10:53;100114.13;;;21.96;32.13
6567;BME280;3317;43.994;22.878;2023-04-26T10:13:21;100117.72;;;21.97;32.02
6567;BME280;3317;43.994;22.878;2023-04-26T10:15:48;100113.59;;;22.11;32.17
6567;BME280;3317;43.994;22.878;2023-04-26T10:18:15;100115.00;;;22.14;31.57
6567;BME280;3317;43.994;22.878;2023-04-26T10:20:44;100117.75;;;22.14;31.12
6567;BME280;3317;43.994;22.878;2023-04-26T10:23:18;100119.94;;;22.12;30.97
6567;BME280;3317;43.994;22.878;2023-04-26T10:25:47;100114.41;;;22.12;30.90
6567;BME280;3317;43.994;22.878;2023-04-26T10:28:14;100114.41;;;22.12;30.83
6567;BME280;3317;43.994;22.878;2023-04-26T10:30:54;100112.72;;;22.11;30.69
6567;BME280;3317;43.994;22.878;2023-04-26T10:33:22;100124.63;;;22.11;30.88
6567;BME280;3317;43.994;22.878;2023-04-26T10:36:13;100128.63;;;22.03;30.29
6567;BME280;3317;43.994;22.878;2023-04-26T10:39:17;100129.78;;;22.07;30.80
6567;BME280;3317;43.994;22.878;2023-04-26T10:41:44;100125.44;;;22.12;31.43
6567;BME280;3317;43.994;22.878;2023-04-26T10:44:37;100129.28;;;22.40;32.35
6567;BME280;3317;43.994;22.878;2023-04-26T10:47:05;100136.88;;;22.32;30.16
6567;BME280;3317;43.994;22.878;2023-04-26T10:49:43;100111.81;;;22.34;30.19
6567;BME280;3317;43.994;22.878;2023-04-26T10:52:12;100124.56;;;22.52;30.47
6567;BME280;3317;43.994;22.878;2023-04-26T10:54:52;100125.25;;;22.59;30.88
6567;BME280;3317;43.994;22.878;2023-04-26T10:57:20;100122.75;;;22.75;30.45
6567;BME280;3317;43.994;22.878;2023-04-26T11:00:25;100129.47;;;22.79;29.59
6567;BME280;3317;43.994;22.878;2023-04-26T11:02:54;100125.19;;;22.88;29.46
6567;BME280;3317;43.994;22.878;2023-04-26T11:05:53;100121.09;;;22.91;29.11
6567;BME280;3317;43.994;22.878;2023-04-26T11:08:23;100120.16;;;22.85;29.21
6567;BME280;3317;43.994;22.878;2023-04-26T11:10:58;100126.78;;;22.84;28.81
6567;BME280;3317;43.994;22.878;2023-04-26T11:13:31;100122.66;;;23.04;30.77
6567;BME280;3317;43.994;22.878;2023-04-26T11:15:59;100112.59;;;23.15;29.69
6567;BME280;3317;43.994;22.878;2023-04-26T11:18:28;100109.66;;;23.21;29.12
6567;BME280;3317;43.994;22.878;2023-04-26T11:20:55;100126.25;;;23.21;29.32
6567;BME280;3317;43.994;22.878;2023-04-26T11:23:23;100123.41;;;23.33;29.45
6567;BME280;3317;43.994;22.878;2023-04-26T11:25:50;100126.84;;;23.41;29.10
6567;BME280;3317;43.994;22.878;2023-04-26T11:28:20;100111.19;;;23.29;28.05
6567;BME280;3317;43.994;22.878;2023-04-26T11:30:48;100129.84;;;23.39;28.63
6567;BME280;3317;43.994;22.878;2023-04-26T11:33:16;100118.63;;;23.29;28.07
6567;BME280;3317;43.994;22.878;2023-04-26T11:35:45;100122.13;;;23.41;28.22
6567;BME280;3317;43.994;22.878;2023-04-26T11:38:12;100130.41;;;23.41;28.24
6567;BME280;3317;43.994;22.878;2023-04-26T11:40:39;100123.38;;;23.51;28.21
6567;BME280;3317;43.994;22.878;2023-04-26T11:43:08;100121.69;;;23.49;28.19
6567;BME280;3317;43.994;22.878;2023-04-26T11:45:37;100114.56;;;23.54;28.24
6567;BME280;3317;43.994;22.878;2023-04-26T11:48:06;100105.31;;;23.65;28.71
6567;BME280;3317;43.994;22.878;2023-04-26T11:50:35;100111.94;;;23.64;27.74
6567;BME280;3317;43.994;22.878;2023-04-26T11:53:04;100103.09;;;23.67;27.57
6567;BME280;3317;43.994;22.878;2023-04-26T11:55:32;100119.66;;;23.62;27.10
6567;BME280;3317;43.994;22.878;2023-04-26T11:58:00;100103.63;;;23.64;27.69
6567;BME280;3317;43.994;22.878;2023-04-26T12:00:28;100106.47;;;23.91;27.97
6567;BME280;3317;43.994;22.878;2023-04-26T12:03:03;100119.97;;;23.88;27.27
6567;BME280;3317;43.994;22.878;2023-04-26T12:05:30;100107.28;;;23.92;27.66
6567;BME280;3317;43.994;22.878;2023-04-26T12:07:58;100119.91;;;23.83;26.95
6567;BME280;3317;43.994;22.878;2023-04-26T12:10:27;100108.16;;;23.70;26.47
6567;BME280;3317;43.994;22.878;2023-04-26T12:12:55;100116.81;;;23.57;27.64
6567;BME280;3317;43.994;22.878;2023-04-26T12:15:27;100109.34;;;23.35;27.44
6567;BME280;3317;43.994;22.878;2023-04-26T12:17:56;100118.91;;;23.27;27.71
6567;BME280;3317;43.994;22.878;2023-04-26T12:20:28;100108.47;;;23.17;28.44
6567;BME280;3317;43.994;22.878;2023-04-26T12:22:58;100117.22;;;23.09;28.23
6567;BME280;3317;43.994;22.878;2023-04-26T12:25:25;100114.28;;;22.99;28.39
6567;BME280;3317;43.994;22.878;2023-04-26T12:27:52;100121.91;;;22.91;28.81
6567;BME280;3317;43.994;22.878;2023-04-26T12:30:19;100120.50;;;22.89;28.78
6567;BME280;3317;43.994;22.878;2023-04-26T12:32:47;100115.47;;;22.69;29.04
6567;BME280;3317;43.994;22.878;2023-04-26T12:35:16;100125.34;;;22.82;30.22
6567;BME280;3317;43.994;22.878;2023-04-26T12:37:43;100088.75;;;22.91;30.39
6567;BME280;3317;43.994;22.878;2023-04-26T12:40:11;100105.31;;;23.09;30.58
6567;BME280;3317;43.994;22.878;2023-04-26T12:42:38;100112.09;;;23.01;30.05
6567;BME280;3317;43.994;22.878;2023-04-26T12:45:06;100126.59;;;22.74;28.89
6567;BME280;3317;43.994;22.878;2023-04-26T12:47:33;100119.22;;;22.62;29.44
6567;BME280;3317;43.994;22.878;2023-04-26T12:50:00;100126.16;;;22.48;30.15
6567;BME280;3317;43.994;22.878;2023-04-26T12:52:29;100112.13;;;22.37;30.16
6567;BME280;3317;43.994;22.878;2023-04-26T12:54:56;100126.81;;;22.26;30.33
6567;BME280;3317;43.994;22.878;2023-04-26T12:57:23;100118.94;;;22.18;29.85
6567;BME280;3317;43.994;22.878;2023-04-26T12:59:50;100126.28;;;22.12;30.36
6567;BME280;3317;43.994;22.878;2023-04-26T13:02:17;100133.28;;;22.03;30.40
6567;BME280;3317;43.994;22.878;2023-04-26T13:04:44;100126.22;;;21.95;30.24
6567;BME280;3317;43.994;22.878;2023-04-26T13:07:11;100135.09;;;21.97;30.56
6567;BME280;3317;43.994;22.878;2023-04-26T13:09:40;100138.25;;;21.89;30.60
6567;BME280;3317;43.994;22.878;2023-04-26T13:12:06;100136.81;;;21.86;30.78